Anthon, Iowa
Current Conditions -  °F | °C
As of 2:52 AM on Sunday 26 Oct 2014 (Local Time) from KSUX Reporting Station
Clear Clear  
Wind Chill: 44°   Ceiling: Unl
Heat Index: 44°   Visibility: 10mi
Dew Point: 36°   Wind: 3mph
Humidity: 73%   Direction: 120°ESE
Pressure: 29.99"   Gusts: NA
Location:  42.39°N, 95.87°W
Report Text: KSUX 260752Z 12003KT 10SM CLR 07/02 A2999 RMK AO2 SLP154 T00670022
Loading
Personal Weather Stations






























Interactive Weather Map
Tropical Storm Tracking
New forecast layout! Learn more

10-Day Weather Forecast

Advertisements
Track Severe Weather on mobile